Terminal Aerodrome Forecast
Issued by NWS Springfield, MO

Home | Current Version | Previous Version | Text Only | Print | Product List | Glossary On
Versions: 1 2 3 4 5 6 7 8 9 10 11 12 13 14 15 16 17 18 19 20 21 22 23
000
FTUS43 KSGF 221720
TAFSGF
TAF
KSGF 221720Z 2218/2318 18012KT P6SM SCT250
     FM230000 VRB04KT P6SM BKN120
     FM230500 17005KT P6SM VCSH OVC050
     FM231100 24004KT P6SM -SHRA VCTS SCT015CB BKN025
     FM231400 31008KT P6SM -SHRA VCTS OVC015CB=

USA.gov is the U.S. government's official web portal to all federal, state and local government web resources and services.